sensor_id;sensor_type;location;lat;lon;timestamp;temperature;humidity
46091;DHT22;31826;53.572;10.170;2023-07-31T00:01:16;14.10;99.90
46091;DHT22;31826;53.572;10.170;2023-07-31T00:03:41;14.10;99.90
46091;DHT22;31826;53.572;10.170;2023-07-31T00:06:07;14.10;99.90
46091;DHT22;31826;53.572;10.170;2023-07-31T00:08:32;14.20;99.90
46091;DHT22;31826;53.572;10.170;2023-07-31T00:10:58;14.20;99.90
46091;DHT22;31826;53.572;10.170;2023-07-31T00:13:24;14.20;99.90
46091;DHT22;31826;53.572;10.170;2023-07-31T00:15:49;14.20;99.90
46091;DHT22;31826;53.572;10.170;2023-07-31T00:18:15;14.30;99.90
46091;DHT22;31826;53.572;10.170;2023-07-31T00:20:41;14.30;99.90
46091;DHT22;31826;53.572;10.170;2023-07-31T00:23:07;14.30;99.90
46091;DHT22;31826;53.572;10.170;2023-07-31T00:25:32;14.40;99.90
46091;DHT22;31826;53.572;10.170;2023-07-31T00:27:58;14.40;99.90
46091;DHT22;31826;53.572;10.170;2023-07-31T00:30:23;14.40;99.90
46091;DHT22;31826;53.572;10.170;2023-07-31T00:32:50;14.30;99.90
46091;DHT22;31826;53.572;10.170;2023-07-31T00:35:16;14.40;99.90
46091;DHT22;31826;53.572;10.170;2023-07-31T00:37:42;14.40;99.90
46091;DHT22;31826;53.572;10.170;2023-07-31T00:40:08;14.30;99.90
46091;DHT22;31826;53.572;10.170;2023-07-31T00:42:34;14.40;99.90
46091;DHT22;31826;53.572;10.170;2023-07-31T00:44:59;14.50;99.90
46091;DHT22;31826;53.572;10.170;2023-07-31T00:47:25;14.50;99.90
46091;DHT22;31826;53.572;10.170;2023-07-31T00:49:51;14.50;99.90
46091;DHT22;31826;53.572;10.170;2023-07-31T00:52:18;14.50;99.90
46091;DHT22;31826;53.572;10.170;2023-07-31T00:54:44;14.40;99.90
46091;DHT22;31826;53.572;10.170;2023-07-31T00:57:10;14.40;99.90
46091;DHT22;31826;53.572;10.170;2023-07-31T00:59:36;14.40;99.90
46091;DHT22;31826;53.572;10.170;2023-07-31T01:02:02;14.50;99.90
46091;DHT22;31826;53.572;10.170;2023-07-31T01:04:29;14.40;99.90
46091;DHT22;31826;53.572;10.170;2023-07-31T01:07:56;14.40;99.90
46091;DHT22;31826;53.572;10.170;2023-07-31T01:10:20;14.40;99.90
46091;DHT22;31826;53.572;10.170;2023-07-31T01:12:48;14.50;99.90
46091;DHT22;31826;53.572;10.170;2023-07-31T01:15:13;14.40;99.90
46091;DHT22;31826;53.572;10.170;2023-07-31T01:17:41;14.30;99.90
46091;DHT22;31826;53.572;10.170;2023-07-31T01:20:14;14.30;99.90
46091;DHT22;31826;53.572;10.170;2023-07-31T01:29:20;14.20;99.90
46091;DHT22;31826;53.572;10.170;2023-07-31T01:31:24;14.10;99.90
46091;DHT22;31826;53.572;10.170;2023-07-31T01:33:53;14.10;99.90
46091;DHT22;31826;53.572;10.170;2023-07-31T01:36:20;14.10;99.90
46091;DHT22;31826;53.572;10.170;2023-07-31T01:38:46;14.10;99.90
46091;DHT22;31826;53.572;10.170;2023-07-31T01:41:11;14.20;99.90
46091;DHT22;31826;53.572;10.170;2023-07-31T01:43:37;14.10;99.90
46091;DHT22;31826;53.572;10.170;2023-07-31T01:46:03;14.10;99.90
46091;DHT22;31826;53.572;10.170;2023-07-31T01:48:28;14.10;99.90
46091;DHT22;31826;53.572;10.170;2023-07-31T01:50:54;14.10;99.90
46091;DHT22;31826;53.572;10.170;2023-07-31T01:53:20;14.10;99.90
46091;DHT22;31826;53.572;10.170;2023-07-31T01:55:45;14.10;99.90
46091;DHT22;31826;53.572;10.170;2023-07-31T01:58:11;14.10;99.90
46091;DHT22;31826;53.572;10.170;2023-07-31T02:00:37;14.10;99.90
46091;DHT22;31826;53.572;10.170;2023-07-31T02:03:02;14.10;99.90
46091;DHT22;31826;53.572;10.170;2023-07-31T02:05:28;14.10;99.90
46091;DHT22;31826;53.572;10.170;2023-07-31T02:07:54;14.10;99.90
46091;DHT22;31826;53.572;10.170;2023-07-31T02:10:19;14.20;99.90
46091;DHT22;31826;53.572;10.170;2023-07-31T02:12:45;14.20;99.90
46091;DHT22;31826;53.572;10.170;2023-07-31T02:15:10;14.10;99.90
46091;DHT22;31826;53.572;10.170;2023-07-31T02:17:36;14.20;99.90
46091;DHT22;31826;53.572;10.170;2023-07-31T02:20:02;14.10;99.90
46091;DHT22;31826;53.572;10.170;2023-07-31T02:22:28;14.20;99.90
46091;DHT22;31826;53.572;10.170;2023-07-31T02:24:53;14.20;99.90
46091;DHT22;31826;53.572;10.170;2023-07-31T02:27:19;14.30;99.90
46091;DHT22;31826;53.572;10.170;2023-07-31T02:29:45;14.20;99.90
46091;DHT22;31826;53.572;10.170;2023-07-31T02:32:10;14.20;99.90
46091;DHT22;31826;53.572;10.170;2023-07-31T02:34:36;14.30;99.90
46091;DHT22;31826;53.572;10.170;2023-07-31T02:37:02;14.30;99.90
46091;DHT22;31826;53.572;10.170;2023-07-31T02:39:27;14.30;99.90
46091;DHT22;31826;53.572;10.170;2023-07-31T02:41:53;14.30;99.90
46091;DHT22;31826;53.572;10.170;2023-07-31T02:44:18;14.30;99.90
46091;DHT22;31826;53.572;10.170;2023-07-31T02:46:45;14.40;99.90
46091;DHT22;31826;53.572;10.170;2023-07-31T02:49:11;14.20;99.90
46091;DHT22;31826;53.572;10.170;2023-07-31T02:51:37;14.40;99.90
46091;DHT22;31826;53.572;10.170;2023-07-31T02:54:02;14.30;99.90
46091;DHT22;31826;53.572;10.170;2023-07-31T02:56:28;14.40;99.90
46091;DHT22;31826;53.572;10.170;2023-07-31T02:58:54;14.40;99.90
46091;DHT22;31826;53.572;10.170;2023-07-31T03:01:19;14.40;99.90
46091;DHT22;31826;53.572;10.170;2023-07-31T03:03:45;14.40;99.90
46091;DHT22;31826;53.572;10.170;2023-07-31T03:06:12;14.40;99.90
46091;DHT22;31826;53.572;10.170;2023-07-31T03:08:38;14.30;99.90
46091;DHT22;31826;53.572;10.170;2023-07-31T03:11:04;14.40;99.90
46091;DHT22;31826;53.572;10.170;2023-07-31T03:13:29;14.40;99.90
46091;DHT22;31826;53.572;10.170;2023-07-31T03:15:55;14.40;99.90
46091;DHT22;31826;53.572;10.170;2023-07-31T03:18:21;14.40;99.90
46091;DHT22;31826;53.572;10.170;2023-07-31T03:20:46;14.40;99.90
46091;DHT22;31826;53.572;10.170;2023-07-31T03:23:12;14.40;99.90
46091;DHT22;31826;53.572;10.170;2023-07-31T03:25:37;14.40;99.90
46091;DHT22;31826;53.572;10.170;2023-07-31T03:28:03;14.40;99.90
46091;DHT22;31826;53.572;10.170;2023-07-31T03:30:29;14.40;99.90
46091;DHT22;31826;53.572;10.170;2023-07-31T03:32:54;14.60;99.90
46091;DHT22;31826;53.572;10.170;2023-07-31T03:35:20;14.50;99.90
46091;DHT22;31826;53.572;10.170;2023-07-31T03:37:46;14.50;99.90
46091;DHT22;31826;53.572;10.170;2023-07-31T03:40:12;14.50;99.90
46091;DHT22;31826;53.572;10.170;2023-07-31T03:42:38;14.50;99.90
46091;DHT22;31826;53.572;10.170;2023-07-31T03:45:04;14.60;99.90
46091;DHT22;31826;53.572;10.170;2023-07-31T03:47:30;14.60;99.90
46091;DHT22;31826;53.572;10.170;2023-07-31T03:49:55;14.60;99.90
46091;DHT22;31826;53.572;10.170;2023-07-31T03:52:21;14.70;99.90
46091;DHT22;31826;53.572;10.170;2023-07-31T03:54:47;14.70;99.90
46091;DHT22;31826;53.572;10.170;2023-07-31T03:57:12;14.70;99.90
46091;DHT22;31826;53.572;10.170;2023-07-31T03:59:38;14.70;99.90
46091;DHT22;31826;53.572;10.170;2023-07-31T04:02:04;14.70;99.90
46091;DHT22;31826;53.572;10.170;2023-07-31T04:04:30;14.70;99.90
46091;DHT22;31826;53.572;10.170;2023-07-31T04:06:56;14.80;99.90
46091;DHT22;31826;53.572;10.170;2023-07-31T04:09:22;14.80;99.90
46091;DHT22;31826;53.572;10.170;2023-07-31T04:11:47;14.80;99.90
46091;DHT22;31826;53.572;10.170;2023-07-31T04:14:13;14.80;99.90
46091;DHT22;31826;53.572;10.170;2023-07-31T04:16:39;14.90;99.90
46091;DHT22;31826;53.572;10.170;2023-07-31T04:19:04;14.90;99.90
46091;DHT22;31826;53.572;10.170;2023-07-31T04:21:30;14.90;99.90
46091;DHT22;31826;53.572;10.170;2023-07-31T04:23:56;14.90;99.90
46091;DHT22;31826;53.572;10.170;2023-07-31T04:26:22;14.90;99.90
46091;DHT22;31826;53.572;10.170;2023-07-31T04:28:47;14.90;99.90
46091;DHT22;31826;53.572;10.170;2023-07-31T04:31:13;14.90;99.90
46091;DHT22;31826;53.572;10.170;2023-07-31T04:33:39;14.90;99.90
46091;DHT22;31826;53.572;10.170;2023-07-31T04:36:05;15.00;99.90
46091;DHT22;31826;53.572;10.170;2023-07-31T04:38:30;14.90;99.90
46091;DHT22;31826;53.572;10.170;2023-07-31T04:40:56;15.00;99.90
46091;DHT22;31826;53.572;10.170;2023-07-31T04:43:22;15.00;99.90
46091;DHT22;31826;53.572;10.170;2023-07-31T04:45:48;15.00;99.90
46091;DHT22;31826;53.572;10.170;2023-07-31T04:48:14;15.00;99.90
46091;DHT22;31826;53.572;10.170;2023-07-31T04:50:40;15.00;99.90
46091;DHT22;31826;53.572;10.170;2023-07-31T04:53:06;15.00;99.90
46091;DHT22;31826;53.572;10.170;2023-07-31T04:55:31;15.00;99.90
46091;DHT22;31826;53.572;10.170;2023-07-31T04:58:01;15.00;99.90
46091;DHT22;31826;53.572;10.170;2023-07-31T05:00:26;15.00;99.90
46091;DHT22;31826;53.572;10.170;2023-07-31T05:02:52;15.00;99.90
46091;DHT22;31826;53.572;10.170;2023-07-31T05:05:17;15.00;99.90
46091;DHT22;31826;53.572;10.170;2023-07-31T05:07:43;15.00;99.90
46091;DHT22;31826;53.572;10.170;2023-07-31T05:10:09;15.00;99.90
46091;DHT22;31826;53.572;10.170;2023-07-31T05:12:34;15.00;99.90
46091;DHT22;31826;53.572;10.170;2023-07-31T05:15:00;15.00;99.90
46091;DHT22;31826;53.572;10.170;2023-07-31T05:17:26;15.00;99.90
46091;DHT22;31826;53.572;10.170;2023-07-31T05:19:51;15.00;99.90
46091;DHT22;31826;53.572;10.170;2023-07-31T05:22:17;15.00;99.90
46091;DHT22;31826;53.572;10.170;2023-07-31T05:24:43;15.00;99.90
46091;DHT22;31826;53.572;10.170;2023-07-31T05:27:08;15.00;99.90
46091;DHT22;31826;53.572;10.170;2023-07-31T05:29:35;15.00;99.90
46091;DHT22;31826;53.572;10.170;2023-07-31T05:32:01;15.00;99.90
46091;DHT22;31826;53.572;10.170;2023-07-31T05:34:26;15.00;99.90
46091;DHT22;31826;53.572;10.170;2023-07-31T05:36:52;15.00;99.90
46091;DHT22;31826;53.572;10.170;2023-07-31T05:39:18;15.00;99.90
46091;DHT22;31826;53.572;10.170;2023-07-31T05:41:45;15.00;99.90
46091;DHT22;31826;53.572;10.170;2023-07-31T05:44:11;15.00;99.90
46091;DHT22;31826;53.572;10.170;2023-07-31T05:46:36;14.90;99.90
46091;DHT22;31826;53.572;10.170;2023-07-31T05:49:02;15.00;99.90
46091;DHT22;31826;53.572;10.170;2023-07-31T05:51:28;15.00;99.90
46091;DHT22;31826;53.572;10.170;2023-07-31T05:53:53;15.00;99.90
46091;DHT22;31826;53.572;10.170;2023-07-31T05:56:19;15.10;99.90
46091;DHT22;31826;53.572;10.170;2023-07-31T05:58:45;15.00;99.90
46091;DHT22;31826;53.572;10.170;2023-07-31T06:01:10;15.10;99.90
46091;DHT22;31826;53.572;10.170;2023-07-31T06:03:36;15.20;99.90
46091;DHT22;31826;53.572;10.170;2023-07-31T06:06:02;15.10;99.90
46091;DHT22;31826;53.572;10.170;2023-07-31T06:08:27;15.20;99.90
46091;DHT22;31826;53.572;10.170;2023-07-31T06:10:53;15.20;99.90
46091;DHT22;31826;53.572;10.170;2023-07-31T06:13:19;15.20;99.90
46091;DHT22;31826;53.572;10.170;2023-07-31T06:15:44;15.30;99.90
46091;DHT22;31826;53.572;10.170;2023-07-31T06:18:10;15.30;99.90
46091;DHT22;31826;53.572;10.170;2023-07-31T06:20:36;15.20;99.90
46091;DHT22;31826;53.572;10.170;2023-07-31T06:23:01;15.40;99.90
46091;DHT22;31826;53.572;10.170;2023-07-31T06:25:28;15.30;99.90
46091;DHT22;31826;53.572;10.170;2023-07-31T06:27:53;15.30;99.90
46091;DHT22;31826;53.572;10.170;2023-07-31T06:30:19;15.30;99.90
46091;DHT22;31826;53.572;10.170;2023-07-31T06:32:44;15.30;99.90
46091;DHT22;31826;53.572;10.170;2023-07-31T06:35:10;15.30;99.90
46091;DHT22;31826;53.572;10.170;2023-07-31T06:37:36;15.30;99.90
46091;DHT22;31826;53.572;10.170;2023-07-31T06:40:02;15.30;99.90
46091;DHT22;31826;53.572;10.170;2023-07-31T06:42:27;15.30;99.90
46091;DHT22;31826;53.572;10.170;2023-07-31T06:44:53;15.30;99.90
46091;DHT22;31826;53.572;10.170;2023-07-31T06:47:18;15.30;99.90
46091;DHT22;31826;53.572;10.170;2023-07-31T06:49:45;15.30;99.90
46091;DHT22;31826;53.572;10.170;2023-07-31T06:52:10;15.30;99.90
46091;DHT22;31826;53.572;10.170;2023-07-31T06:54:36;15.30;99.90
46091;DHT22;31826;53.572;10.170;2023-07-31T06:57:02;15.40;99.90
46091;DHT22;31826;53.572;10.170;2023-07-31T06:59:29;15.50;99.90
46091;DHT22;31826;53.572;10.170;2023-07-31T07:01:54;15.50;99.90
46091;DHT22;31826;53.572;10.170;2023-07-31T07:04:20;15.50;99.90
46091;DHT22;31826;53.572;10.170;2023-07-31T07:06:46;15.50;99.90
46091;DHT22;31826;53.572;10.170;2023-07-31T07:09:11;15.60;99.90
46091;DHT22;31826;53.572;10.170;2023-07-31T07:11:37;15.60;99.90
46091;DHT22;31826;53.572;10.170;2023-07-31T07:14:03;15.60;99.90
46091;DHT22;31826;53.572;10.170;2023-07-31T07:16:29;15.60;99.90
46091;DHT22;31826;53.572;10.170;2023-07-31T07:18:54;15.60;99.90
46091;DHT22;31826;53.572;10.170;2023-07-31T07:21:20;15.50;99.90
46091;DHT22;31826;53.572;10.170;2023-07-31T07:23:46;15.50;99.90
46091;DHT22;31826;53.572;10.170;2023-07-31T07:26:11;15.50;99.90
46091;DHT22;31826;53.572;10.170;2023-07-31T07:28:37;15.60;99.90
46091;DHT22;31826;53.572;10.170;2023-07-31T07:31:03;15.50;99.90
46091;DHT22;31826;53.572;10.170;2023-07-31T07:33:29;15.50;99.90
46091;DHT22;31826;53.572;10.170;2023-07-31T07:35:54;15.60;99.90
46091;DHT22;31826;53.572;10.170;2023-07-31T07:38:20;15.50;99.90
46091;DHT22;31826;53.572;10.170;2023-07-31T07:40:46;15.50;99.90
46091;DHT22;31826;53.572;10.170;2023-07-31T07:43:16;15.50;99.90
46091;DHT22;31826;53.572;10.170;2023-07-31T07:45:41;15.50;99.90
46091;DHT22;31826;53.572;10.170;2023-07-31T07:48:07;15.50;99.90
46091;DHT22;31826;53.572;10.170;2023-07-31T07:50:33;15.50;99.90
46091;DHT22;31826;53.572;10.170;2023-07-31T07:52:58;15.50;99.90
46091;DHT22;31826;53.572;10.170;2023-07-31T07:55:24;15.50;99.90
46091;DHT22;31826;53.572;10.170;2023-07-31T07:57:50;15.50;99.90
46091;DHT22;31826;53.572;10.170;2023-07-31T08:00:16;15.50;99.90
46091;DHT22;31826;53.572;10.170;2023-07-31T08:02:43;15.50;99.90
46091;DHT22;31826;53.572;10.170;2023-07-31T08:05:08;15.60;99.90
46091;DHT22;31826;53.572;10.170;2023-07-31T08:07:34;15.60;99.90
46091;DHT22;31826;53.572;10.170;2023-07-31T08:10:00;15.60;99.90
46091;DHT22;31826;53.572;10.170;2023-07-31T08:12:26;15.60;99.90
46091;DHT22;31826;53.572;10.170;2023-07-31T08:14:51;15.70;99.90
46091;DHT22;31826;53.572;10.170;2023-07-31T08:17:17;15.70;99.90
46091;DHT22;31826;53.572;10.170;2023-07-31T08:19:43;15.80;99.90
46091;DHT22;31826;53.572;10.170;2023-07-31T08:22:09;15.80;99.90
46091;DHT22;31826;53.572;10.170;2023-07-31T08:24:35;15.80;99.90
46091;DHT22;31826;53.572;10.170;2023-07-31T08:27:00;15.80;99.90
46091;DHT22;31826;53.572;10.170;2023-07-31T08:29:26;15.80;99.90
46091;DHT22;31826;53.572;10.170;2023-07-31T08:31:52;15.90;99.90
46091;DHT22;31826;53.572;10.170;2023-07-31T08:34:18;15.80;99.90
46091;DHT22;31826;53.572;10.170;2023-07-31T08:36:45;15.90;99.90
46091;DHT22;31826;53.572;10.170;2023-07-31T08:39:10;16.00;99.90
46091;DHT22;31826;53.572;10.170;2023-07-31T08:41:39;16.00;99.90
46091;DHT22;31826;53.572;10.170;2023-07-31T08:44:06;16.10;99.90
46091;DHT22;31826;53.572;10.170;2023-07-31T08:46:33;16.00;99.90
46091;DHT22;31826;53.572;10.170;2023-07-31T08:48:59;16.10;99.90
46091;DHT22;31826;53.572;10.170;2023-07-31T08:51:26;16.10;99.90
46091;DHT22;31826;53.572;10.170;2023-07-31T08:53:53;16.20;99.90
46091;DHT22;31826;53.572;10.170;2023-07-31T08:56:19;16.30;99.90
46091;DHT22;31826;53.572;10.170;2023-07-31T08:58:45;16.40;99.90
46091;DHT22;31826;53.572;10.170;2023-07-31T09:01:12;16.50;99.90
46091;DHT22;31826;53.572;10.170;2023-07-31T09:03:39;16.50;99.90
46091;DHT22;31826;53.572;10.170;2023-07-31T09:06:06;16.60;99.90
46091;DHT22;31826;53.572;10.170;2023-07-31T09:08:33;16.60;99.90
46091;DHT22;31826;53.572;10.170;2023-07-31T09:11:00;16.70;99.90
46091;DHT22;31826;53.572;10.170;2023-07-31T09:13:29;16.70;99.90
46091;DHT22;31826;53.572;10.170;2023-07-31T09:15:55;16.80;99.90
46091;DHT22;31826;53.572;10.170;2023-07-31T09:18:21;16.90;99.90
46091;DHT22;31826;53.572;10.170;2023-07-31T09:21:08;16.80;99.90
46091;DHT22;31826;53.572;10.170;2023-07-31T09:23:46;16.90;99.90
46091;DHT22;31826;53.572;10.170;2023-07-31T09:26:35;16.90;99.90
46091;DHT22;31826;53.572;10.170;2023-07-31T09:29:04;16.90;99.90
46091;DHT22;31826;53.572;10.170;2023-07-31T09:31:39;16.80;99.90
46091;DHT22;31826;53.572;10.170;2023-07-31T09:34:05;16.80;99.90
46091;DHT22;31826;53.572;10.170;2023-07-31T09:36:30;16.80;99.90
46091;DHT22;31826;53.572;10.170;2023-07-31T09:39:02;16.80;99.90
46091;DHT22;31826;53.572;10.170;2023-07-31T09:41:28;16.80;99.90
46091;DHT22;31826;53.572;10.170;2023-07-31T09:43:54;16.70;99.90
46091;DHT22;31826;53.572;10.170;2023-07-31T09:46:21;16.80;99.90
46091;DHT22;31826;53.572;10.170;2023-07-31T09:48:47;16.70;99.90
46091;DHT22;31826;53.572;10.170;2023-07-31T09:51:13;16.80;99.90
46091;DHT22;31826;53.572;10.170;2023-07-31T09:53:39;16.90;99.90
46091;DHT22;31826;53.572;10.170;2023-07-31T09:56:05;16.90;99.90
46091;DHT22;31826;53.572;10.170;2023-07-31T09:58:34;16.90;99.90
46091;DHT22;31826;53.572;10.170;2023-07-31T10:01:01;17.00;99.90
46091;DHT22;31826;53.572;10.170;2023-07-31T10:03:27;16.90;99.90
46091;DHT22;31826;53.572;10.170;2023-07-31T10:05:56;16.90;99.90
46091;DHT22;31826;53.572;10.170;2023-07-31T10:08:26;16.90;99.90
46091;DHT22;31826;53.572;10.170;2023-07-31T10:11:00;17.00;99.90
46091;DHT22;31826;53.572;10.170;2023-07-31T10:13:28;16.90;99.90
46091;DHT22;31826;53.572;10.170;2023-07-31T10:15:58;16.90;99.90
46091;DHT22;31826;53.572;10.170;2023-07-31T10:18:25;17.00;99.90
46091;DHT22;31826;53.572;10.170;2023-07-31T10:20:52;17.00;99.90
46091;DHT22;31826;53.572;10.170;2023-07-31T10:23:18;17.00;99.90
46091;DHT22;31826;53.572;10.170;2023-07-31T10:25:44;17.10;99.90
46091;DHT22;31826;53.572;10.170;2023-07-31T10:28:12;17.00;99.90
46091;DHT22;31826;53.572;10.170;2023-07-31T10:30:39;17.00;99.90
46091;DHT22;31826;53.572;10.170;2023-07-31T10:33:05;17.10;99.90
46091;DHT22;31826;53.572;10.170;2023-07-31T10:35:31;17.20;99.90
46091;DHT22;31826;53.572;10.170;2023-07-31T10:38:10;17.10;99.90
46091;DHT22;31826;53.572;10.170;2023-07-31T10:40:37;17.10;99.90
46091;DHT22;31826;53.572;10.170;2023-07-31T10:43:03;17.10;99.90
46091;DHT22;31826;53.572;10.170;2023-07-31T10:45:32;17.10;99.90
46091;DHT22;31826;53.572;10.170;2023-07-31T10:48:03;17.00;99.90
46091;DHT22;31826;53.572;10.170;2023-07-31T10:50:31;17.00;99.90
46091;DHT22;31826;53.572;10.170;2023-07-31T10:52:59;16.90;99.90
46091;DHT22;31826;53.572;10.170;2023-07-31T10:57:57;16.90;99.90
46091;DHT22;31826;53.572;10.170;2023-07-31T11:00:28;16.90;99.90
46091;DHT22;31826;53.572;10.170;2023-07-31T11:08:19;16.70;99.90
46091;DHT22;31826;53.572;10.170;2023-07-31T11:10:48;16.70;99.90
46091;DHT22;31826;53.572;10.170;2023-07-31T11:13:14;16.70;99.90
46091;DHT22;31826;53.572;10.170;2023-07-31T11:15:40;16.60;99.90
46091;DHT22;31826;53.572;10.170;2023-07-31T11:18:06;16.60;99.90
46091;DHT22;31826;53.572;10.170;2023-07-31T11:20:34;16.60;99.90
46091;DHT22;31826;53.572;10.170;2023-07-31T11:23:06;16.70;99.90
46091;DHT22;31826;53.572;10.170;2023-07-31T11:25:33;16.70;99.90
46091;DHT22;31826;53.572;10.170;2023-07-31T11:28:06;16.80;99.90
46091;DHT22;31826;53.572;10.170;2023-07-31T11:30:33;17.00;99.90
46091;DHT22;31826;53.572;10.170;2023-07-31T11:33:03;17.00;99.90
46091;DHT22;31826;53.572;10.170;2023-07-31T11:35:33;17.00;99.90
46091;DHT22;31826;53.572;10.170;2023-07-31T11:37:59;17.10;99.90
46091;DHT22;31826;53.572;10.170;2023-07-31T11:40:26;17.10;99.90
46091;DHT22;31826;53.572;10.170;2023-07-31T11:42:56;17.10;99.90
46091;DHT22;31826;53.572;10.170;2023-07-31T11:45:25;17.10;99.90
46091;DHT22;31826;53.572;10.170;2023-07-31T11:47:52;17.10;99.90
46091;DHT22;31826;53.572;10.170;2023-07-31T11:50:18;17.10;99.90
46091;DHT22;31826;53.572;10.170;2023-07-31T11:52:44;17.00;99.90
46091;DHT22;31826;53.572;10.170;2023-07-31T11:55:12;17.10;99.90
46091;DHT22;31826;53.572;10.170;2023-07-31T11:57:39;17.00;99.90
46091;DHT22;31826;53.572;10.170;2023-07-31T12:00:07;17.10;99.90
46091;DHT22;31826;53.572;10.170;2023-07-31T12:02:35;17.20;99.90
46091;DHT22;31826;53.572;10.170;2023-07-31T12:05:01;17.10;99.90
46091;DHT22;31826;53.572;10.170;2023-07-31T12:07:27;17.00;99.90
46091;DHT22;31826;53.572;10.170;2023-07-31T12:09:56;17.00;99.90
46091;DHT22;31826;53.572;10.170;2023-07-31T12:12:24;17.10;99.90
46091;DHT22;31826;53.572;10.170;2023-07-31T12:14:50;17.10;99.90
46091;DHT22;31826;53.572;10.170;2023-07-31T12:17:17;17.10;99.90
46091;DHT22;31826;53.572;10.170;2023-07-31T12:19:44;17.00;99.90
46091;DHT22;31826;53.572;10.170;2023-07-31T12:22:14;17.10;99.90
46091;DHT22;31826;53.572;10.170;2023-07-31T12:24:43;17.10;99.90
46091;DHT22;31826;53.572;10.170;2023-07-31T12:27:14;17.20;99.90
46091;DHT22;31826;53.572;10.170;2023-07-31T12:29:41;17.20;99.90
46091;DHT22;31826;53.572;10.170;2023-07-31T12:32:24;17.30;99.90
46091;DHT22;31826;53.572;10.170;2023-07-31T12:34:51;17.20;99.90
46091;DHT22;31826;53.572;10.170;2023-07-31T12:37:17;17.30;99.90
46091;DHT22;31826;53.572;10.170;2023-07-31T12:39:43;17.30;99.90
46091;DHT22;31826;53.572;10.170;2023-07-31T12:42:08;17.20;99.90
46091;DHT22;31826;53.572;10.170;2023-07-31T12:44:34;17.20;99.90
46091;DHT22;31826;53.572;10.170;2023-07-31T12:47:00;17.10;99.90
46091;DHT22;31826;53.572;10.170;2023-07-31T12:49:25;17.10;99.90
46091;DHT22;31826;53.572;10.170;2023-07-31T12:51:51;17.10;99.90
46091;DHT22;31826;53.572;10.170;2023-07-31T12:54:17;17.10;99.90
46091;DHT22;31826;53.572;10.170;2023-07-31T12:56:42;17.00;99.90
46091;DHT22;31826;53.572;10.170;2023-07-31T12:59:09;17.00;99.90
46091;DHT22;31826;53.572;10.170;2023-07-31T13:01:34;16.90;99.90
46091;DHT22;31826;53.572;10.170;2023-07-31T13:04:00;16.90;99.90
46091;DHT22;31826;53.572;10.170;2023-07-31T13:06:25;17.00;99.90
46091;DHT22;31826;53.572;10.170;2023-07-31T13:08:51;16.90;99.90
46091;DHT22;31826;53.572;10.170;2023-07-31T13:11:17;16.90;99.90
46091;DHT22;31826;53.572;10.170;2023-07-31T13:13:43;16.90;99.90
46091;DHT22;31826;53.572;10.170;2023-07-31T13:16:08;16.90;99.90
46091;DHT22;31826;53.572;10.170;2023-07-31T13:18:34;16.90;99.90
46091;DHT22;31826;53.572;10.170;2023-07-31T13:21:00;16.80;99.90
46091;DHT22;31826;53.572;10.170;2023-07-31T13:23:25;16.80;99.90
46091;DHT22;31826;53.572;10.170;2023-07-31T13:25:51;16.80;99.90
46091;DHT22;31826;53.572;10.170;2023-07-31T13:28:17;16.70;99.90
46091;DHT22;31826;53.572;10.170;2023-07-31T13:30:42;16.60;99.90
46091;DHT22;31826;53.572;10.170;2023-07-31T13:33:08;16.60;99.90
46091;DHT22;31826;53.572;10.170;2023-07-31T13:35:34;16.60;99.90
46091;DHT22;31826;53.572;10.170;2023-07-31T13:37:59;16.60;99.90
46091;DHT22;31826;53.572;10.170;2023-07-31T13:40:25;16.60;99.90
46091;DHT22;31826;53.572;10.170;2023-07-31T13:42:51;16.60;99.90
46091;DHT22;31826;53.572;10.170;2023-07-31T13:45:16;16.70;99.90
46091;DHT22;31826;53.572;10.170;2023-07-31T13:47:42;16.70;99.90
46091;DHT22;31826;53.572;10.170;2023-07-31T13:50:08;16.70;99.90
46091;DHT22;31826;53.572;10.170;2023-07-31T13:52:34;16.70;99.90
46091;DHT22;31826;53.572;10.170;2023-07-31T13:54:59;16.70;99.90
46091;DHT22;31826;53.572;10.170;2023-07-31T13:57:25;16.70;99.90
46091;DHT22;31826;53.572;10.170;2023-07-31T13:59:51;16.70;99.90
46091;DHT22;31826;53.572;10.170;2023-07-31T14:02:16;16.70;99.90
46091;DHT22;31826;53.572;10.170;2023-07-31T14:04:42;16.80;99.90
46091;DHT22;31826;53.572;10.170;2023-07-31T14:07:08;16.70;99.90
46091;DHT22;31826;53.572;10.170;2023-07-31T14:09:33;16.70;99.90
46091;DHT22;31826;53.572;10.170;2023-07-31T14:11:59;16.70;99.90
46091;DHT22;31826;53.572;10.170;2023-07-31T14:14:25;16.70;99.90
46091;DHT22;31826;53.572;10.170;2023-07-31T14:16:50;16.80;99.90
46091;DHT22;31826;53.572;10.170;2023-07-31T14:19:16;16.80;99.90
46091;DHT22;31826;53.572;10.170;2023-07-31T14:21:42;16.90;99.90
46091;DHT22;31826;53.572;10.170;2023-07-31T14:24:07;17.00;99.90
46091;DHT22;31826;53.572;10.170;2023-07-31T14:26:33;17.10;99.90
46091;DHT22;31826;53.572;10.170;2023-07-31T14:28:59;17.20;99.90
46091;DHT22;31826;53.572;10.170;2023-07-31T14:31:24;17.30;99.90
46091;DHT22;31826;53.572;10.170;2023-07-31T14:33:50;17.30;99.90
46091;DHT22;31826;53.572;10.170;2023-07-31T14:36:16;17.40;99.90
46091;DHT22;31826;53.572;10.170;2023-07-31T14:38:41;17.40;99.90
46091;DHT22;31826;53.572;10.170;2023-07-31T14:41:07;17.40;99.90
46091;DHT22;31826;53.572;10.170;2023-07-31T14:43:33;17.40;99.90
46091;DHT22;31826;53.572;10.170;2023-07-31T14:45:58;17.50;99.90
46091;DHT22;31826;53.572;10.170;2023-07-31T14:48:26;17.40;99.90
46091;DHT22;31826;53.572;10.170;2023-07-31T14:50:52;17.40;99.90
46091;DHT22;31826;53.572;10.170;2023-07-31T14:53:18;17.40;99.90
46091;DHT22;31826;53.572;10.170;2023-07-31T14:55:44;17.40;99.90
46091;DHT22;31826;53.572;10.170;2023-07-31T14:58:10;17.50;99.90
46091;DHT22;31826;53.572;10.170;2023-07-31T15:00:36;17.50;99.90
46091;DHT22;31826;53.572;10.170;2023-07-31T15:03:03;17.40;99.90
46091;DHT22;31826;53.572;10.170;2023-07-31T15:05:28;17.30;99.90
46091;DHT22;31826;53.572;10.170;2023-07-31T15:07:54;17.20;99.90
46091;DHT22;31826;53.572;10.170;2023-07-31T15:10:20;17.20;99.90
46091;DHT22;31826;53.572;10.170;2023-07-31T15:12:45;17.10;99.90
46091;DHT22;31826;53.572;10.170;2023-07-31T15:15:11;17.10;99.90
46091;DHT22;31826;53.572;10.170;2023-07-31T15:17:37;17.10;99.90
46091;DHT22;31826;53.572;10.170;2023-07-31T15:20:03;17.10;99.90
46091;DHT22;31826;53.572;10.170;2023-07-31T15:22:29;17.20;99.90
46091;DHT22;31826;53.572;10.170;2023-07-31T15:24:56;17.20;99.90